Terminal Aerodrome Forecast
Issued by NWS

Home | Current Version | Previous Version | Text Only | Print | Product List | Glossary On
Versions: 1 2 3 4 5 6 7 8 9 10 11 12 13 14 15
000
FTUS42 KGSP 292331
TAFGMU
TAF
KGMU 292331Z 3000/3024 12006KT P6SM FEW070 OVC100
     FM300800 00000KT P6SM SCT250
     FM301200 00000KT P6SM BKN018
     FM301500 17003KT P6SM BKN024
     FM301600 16005KT P6SM SCT045=

USA.gov is the U.S. government's official web portal to all federal, state and local government web resources and services.